Aeroporto :
LOGIN :

Iscrizione | Disclaimer

   EN    FR    IT 

 










Sommario :    VFR   VFR Marginale   IFR   IFR Intensivo   IFR Molto Intensivo
Visibilità : 
Base nubi : 
>= 8 km
>= 3000ft
5 / 8 km
1000 / 3000 ft
1500m / 5 km
500 / 1000 ft
800 / 1500m
200 / 500 ft
< 800m
< 200 ft
Simboli :   Temporali  Nebbia  Neve Forte  Precipitazioni Forti  Vento > 20 kt
SIGMETs :   Varie  Temporali  Ghiacco  Turbolenza  Onda orograficha  Ceneri Vulcaniche






- Altitudine del aeroporto : 386 ft
- Codice IATA : QOE


ETNN - Nörvenich Airforce Base

ULTIMO METAR :
  • 200620Z 15004KT 9999 BKN026 02/01 Q1018 BLU BLU TEMPO GRN

METARs OBSOLETI :
  • 200520Z 16004KT 9999 BKN026 01/00 Q1018 BLU BLU TEMPO GRN
  • 200420Z VRB03KT 9000 BKN025 00/M00 Q1019 BLU

TAF TAF ETNN
Valido dal 20 a 06 ore il 20 a 15 ore UTC


200500Z 2006/2015 12005KT 9999 NSW BKN025
TEMPO 2006/2010 11003KT 4000 BR BKN010
PROB30 2006/2010 VRB01KT 0500 FZFG BKN001 BY ETGL



MetMap, La meteo Aeronautica in un colpo d'occhio ! - Copyright ORBIFLY Dicembre 2007 - Disclaimer

ORBIFLY MET'MAP TEAM :

Programmazione e sviluppo : Alexandra Zaïnal
Concezione e sviluppo : Baudouin d'Aumeries
Co-Programmazione e sviluppo : Marc-Olivier Méhu
Supporto tecnico e logistico : Manuel Goepfert
Aiuto per la traduzione : Arnaldo La Scala

Contatto : metmap@orbifly.com




FONTI E CREDITI :

   NOAA